sensor_id;sensor_type;location;lat;lon;timestamp;P1;durP1;ratioP1;P2;durP2;ratioP2
8568;SDS011;4322;51.104;-4.162;2023-04-01T00:00:52;26.80;;;25.40;;
8568;SDS011;4322;51.104;-4.162;2023-04-01T00:03:20;24.83;;;23.53;;
8568;SDS011;4322;51.104;-4.162;2023-04-01T00:05:48;25.03;;;23.73;;
8568;SDS011;4322;51.104;-4.162;2023-04-01T00:08:16;24.37;;;23.17;;
8568;SDS011;4322;51.104;-4.162;2023-04-01T00:10:44;24.37;;;23.17;;
8568;SDS011;4322;51.104;-4.162;2023-04-01T00:13:12;23.53;;;22.33;;
8568;SDS011;4322;51.104;-4.162;2023-04-01T00:15:40;23.53;;;22.33;;
8568;SDS011;4322;51.104;-4.162;2023-04-01T00:18:09;25.17;;;23.87;;
8568;SDS011;4322;51.104;-4.162;2023-04-01T00:20:37;23.00;;;21.80;;
8568;SDS011;4322;51.104;-4.162;2023-04-01T00:23:05;20.37;;;19.37;;
8568;SDS011;4322;51.104;-4.162;2023-04-01T00:25:33;21.33;;;20.23;;
8568;SDS011;4322;51.104;-4.162;2023-04-01T00:28:00;21.90;;;20.80;;
8568;SDS011;4322;51.104;-4.162;2023-04-01T00:30:28;19.50;;;18.50;;
8568;SDS011;4322;51.104;-4.162;2023-04-01T00:32:56;20.27;;;19.27;;
8568;SDS011;4322;51.104;-4.162;2023-04-01T00:35:25;20.00;;;19.00;;
8568;SDS011;4322;51.104;-4.162;2023-04-01T00:37:53;18.67;;;17.77;;
8568;SDS011;4322;51.104;-4.162;2023-04-01T00:40:23;18.00;;;17.10;;
8568;SDS011;4322;51.104;-4.162;2023-04-01T00:42:51;16.87;;;16.07;;
8568;SDS011;4322;51.104;-4.162;2023-04-01T00:45:30;16.43;;;15.63;;
8568;SDS011;4322;51.104;-4.162;2023-04-01T00:47:59;17.13;;;16.27;;
8568;SDS011;4322;51.104;-4.162;2023-04-01T00:50:30;17.73;;;16.83;;
8568;SDS011;4322;51.104;-4.162;2023-04-01T00:52:59;17.67;;;16.77;;
8568;SDS011;4322;51.104;-4.162;2023-04-01T00:55:28;16.87;;;16.07;;
8568;SDS011;4322;51.104;-4.162;2023-04-01T00:57:58;16.43;;;15.63;;
8568;SDS011;4322;51.104;-4.162;2023-04-01T01:00:27;16.90;;;16.10;;
8568;SDS011;4322;51.104;-4.162;2023-04-01T01:02:55;16.97;;;16.17;;
8568;SDS011;4322;51.104;-4.162;2023-04-01T01:05:23;18.40;;;17.50;;
8568;SDS011;4322;51.104;-4.162;2023-04-01T01:07:57;16.73;;;15.93;;
8568;SDS011;4322;51.104;-4.162;2023-04-01T01:10:30;16.40;;;15.60;;
8568;SDS011;4322;51.104;-4.162;2023-04-01T01:13:02;18.67;;;17.77;;
8568;SDS011;4322;51.104;-4.162;2023-04-01T01:15:32;18.00;;;17.10;;
8568;SDS011;4322;51.104;-4.162;2023-04-01T01:18:05;17.27;;;16.37;;
8568;SDS011;4322;51.104;-4.162;2023-04-01T01:26:07;16.33;;;15.53;;
8568;SDS011;4322;51.104;-4.162;2023-04-01T01:28:41;18.37;;;17.47;;
8568;SDS011;4322;51.104;-4.162;2023-04-01T01:31:11;18.40;;;17.50;;
8568;SDS011;4322;51.104;-4.162;2023-04-01T01:33:45;15.40;;;14.60;;
8568;SDS011;4322;51.104;-4.162;2023-04-01T01:36:17;17.83;;;16.93;;
8568;SDS011;4322;51.104;-4.162;2023-04-01T01:38:47;16.00;;;15.20;;
8568;SDS011;4322;51.104;-4.162;2023-04-01T01:41:16;17.33;;;16.43;;
8568;SDS011;4322;51.104;-4.162;2023-04-01T01:43:46;17.43;;;16.53;;
8568;SDS011;4322;51.104;-4.162;2023-04-01T01:46:16;17.07;;;16.23;;
8568;SDS011;4322;51.104;-4.162;2023-04-01T01:48:45;16.57;;;15.77;;
8568;SDS011;4322;51.104;-4.162;2023-04-01T01:51:13;16.57;;;15.77;;
8568;SDS011;4322;51.104;-4.162;2023-04-01T01:53:42;15.83;;;15.03;;
8568;SDS011;4322;51.104;-4.162;2023-04-01T01:56:11;15.33;;;14.57;;
8568;SDS011;4322;51.104;-4.162;2023-04-01T01:58:41;16.20;;;15.40;;
8568;SDS011;4322;51.104;-4.162;2023-04-01T02:01:11;14.97;;;14.27;;
8568;SDS011;4322;51.104;-4.162;2023-04-01T02:03:40;16.23;;;15.43;;
8568;SDS011;4322;51.104;-4.162;2023-04-01T02:06:10;15.70;;;14.90;;
8568;SDS011;4322;51.104;-4.162;2023-04-01T02:08:39;13.33;;;12.70;;
8568;SDS011;4322;51.104;-4.162;2023-04-01T02:11:10;14.07;;;13.37;;
8568;SDS011;4322;51.104;-4.162;2023-04-01T02:13:39;13.67;;;12.97;;
8568;SDS011;4322;51.104;-4.162;2023-04-01T02:16:09;12.57;;;11.97;;
8568;SDS011;4322;51.104;-4.162;2023-04-01T02:18:38;13.67;;;12.97;;
8568;SDS011;4322;51.104;-4.162;2023-04-01T02:21:06;13.53;;;12.83;;
8568;SDS011;4322;51.104;-4.162;2023-04-01T02:23:35;12.80;;;12.20;;
8568;SDS011;4322;51.104;-4.162;2023-04-01T02:26:04;12.60;;;12.00;;
8568;SDS011;4322;51.104;-4.162;2023-04-01T02:28:34;11.90;;;11.30;;
8568;SDS011;4322;51.104;-4.162;2023-04-01T02:31:04;11.43;;;10.93;;
8568;SDS011;4322;51.104;-4.162;2023-04-01T02:33:32;10.07;;;9.57;;
8568;SDS011;4322;51.104;-4.162;2023-04-01T02:36:00;11.23;;;10.73;;
8568;SDS011;4322;51.104;-4.162;2023-04-01T02:38:27;9.93;;;9.43;;
8568;SDS011;4322;51.104;-4.162;2023-04-01T02:40:56;9.40;;;9.00;;
8568;SDS011;4322;51.104;-4.162;2023-04-01T02:43:24;9.13;;;8.73;;
8568;SDS011;4322;51.104;-4.162;2023-04-01T02:45:53;8.97;;;8.57;;
8568;SDS011;4322;51.104;-4.162;2023-04-01T02:48:21;9.57;;;9.13;;
8568;SDS011;4322;51.104;-4.162;2023-04-01T02:50:49;8.77;;;8.37;;
8568;SDS011;4322;51.104;-4.162;2023-04-01T02:53:17;8.17;;;7.77;;
8568;SDS011;4322;51.104;-4.162;2023-04-01T02:55:44;8.37;;;7.97;;
8568;SDS011;4322;51.104;-4.162;2023-04-01T02:58:12;8.77;;;8.37;;
8568;SDS011;4322;51.104;-4.162;2023-04-01T03:00:40;9.17;;;8.77;;
8568;SDS011;4322;51.104;-4.162;2023-04-01T03:03:09;8.73;;;8.33;;
8568;SDS011;4322;51.104;-4.162;2023-04-01T03:05:37;9.07;;;8.67;;
8568;SDS011;4322;51.104;-4.162;2023-04-01T03:08:05;8.07;;;7.67;;
8568;SDS011;4322;51.104;-4.162;2023-04-01T03:10:32;8.30;;;7.90;;
8568;SDS011;4322;51.104;-4.162;2023-04-01T03:13:00;9.50;;;9.10;;
8568;SDS011;4322;51.104;-4.162;2023-04-01T03:15:28;9.23;;;8.83;;
8568;SDS011;4322;51.104;-4.162;2023-04-01T03:17:56;10.03;;;9.53;;
8568;SDS011;4322;51.104;-4.162;2023-04-01T03:20:25;9.43;;;9.03;;
8568;SDS011;4322;51.104;-4.162;2023-04-01T03:22:53;9.00;;;8.60;;
8568;SDS011;4322;51.104;-4.162;2023-04-01T03:25:21;9.07;;;8.67;;
8568;SDS011;4322;51.104;-4.162;2023-04-01T03:27:49;7.90;;;7.50;;
8568;SDS011;4322;51.104;-4.162;2023-04-01T03:30:17;8.47;;;8.07;;
8568;SDS011;4322;51.104;-4.162;2023-04-01T03:32:44;7.93;;;7.53;;
8568;SDS011;4322;51.104;-4.162;2023-04-01T03:35:12;8.50;;;8.10;;
8568;SDS011;4322;51.104;-4.162;2023-04-01T03:37:41;8.57;;;8.17;;
8568;SDS011;4322;51.104;-4.162;2023-04-01T03:40:09;8.53;;;8.13;;
8568;SDS011;4322;51.104;-4.162;2023-04-01T03:42:37;8.23;;;7.83;;
8568;SDS011;4322;51.104;-4.162;2023-04-01T03:45:06;8.30;;;7.90;;
8568;SDS011;4322;51.104;-4.162;2023-04-01T03:47:33;8.73;;;8.33;;
8568;SDS011;4322;51.104;-4.162;2023-04-01T03:50:01;8.33;;;7.93;;
8568;SDS011;4322;51.104;-4.162;2023-04-01T03:52:29;9.00;;;8.60;;
8568;SDS011;4322;51.104;-4.162;2023-04-01T03:54:58;7.70;;;7.40;;
8568;SDS011;4322;51.104;-4.162;2023-04-01T03:57:26;7.57;;;7.27;;
8568;SDS011;4322;51.104;-4.162;2023-04-01T03:59:54;7.87;;;7.47;;
8568;SDS011;4322;51.104;-4.162;2023-04-01T04:02:22;7.37;;;7.07;;
8568;SDS011;4322;51.104;-4.162;2023-04-01T04:04:50;9.17;;;8.77;;
8568;SDS011;4322;51.104;-4.162;2023-04-01T04:07:18;8.97;;;8.57;;
8568;SDS011;4322;51.104;-4.162;2023-04-01T04:09:45;8.83;;;8.43;;
8568;SDS011;4322;51.104;-4.162;2023-04-01T04:12:15;9.80;;;9.30;;
8568;SDS011;4322;51.104;-4.162;2023-04-01T04:14:43;9.03;;;8.63;;
8568;SDS011;4322;51.104;-4.162;2023-04-01T04:17:11;9.63;;;9.20;;
8568;SDS011;4322;51.104;-4.162;2023-04-01T04:19:42;7.97;;;7.57;;
8568;SDS011;4322;51.104;-4.162;2023-04-01T04:22:10;8.87;;;8.47;;
8568;SDS011;4322;51.104;-4.162;2023-04-01T04:24:38;9.50;;;9.10;;
8568;SDS011;4322;51.104;-4.162;2023-04-01T04:27:05;9.40;;;9.00;;
8568;SDS011;4322;51.104;-4.162;2023-04-01T04:29:35;10.67;;;10.17;;
8568;SDS011;4322;51.104;-4.162;2023-04-01T04:32:02;10.40;;;9.90;;
8568;SDS011;4322;51.104;-4.162;2023-04-01T04:34:30;10.33;;;9.83;;
8568;SDS011;4322;51.104;-4.162;2023-04-01T04:36:58;11.77;;;11.17;;
8568;SDS011;4322;51.104;-4.162;2023-04-01T04:39:26;11.60;;;11.03;;
8568;SDS011;4322;51.104;-4.162;2023-04-01T04:41:54;10.73;;;10.23;;
8568;SDS011;4322;51.104;-4.162;2023-04-01T04:44:22;10.80;;;10.30;;
8568;SDS011;4322;51.104;-4.162;2023-04-01T04:46:51;10.87;;;10.37;;
8568;SDS011;4322;51.104;-4.162;2023-04-01T04:49:21;12.77;;;12.17;;
8568;SDS011;4322;51.104;-4.162;2023-04-01T04:51:49;11.70;;;11.10;;
8568;SDS011;4322;51.104;-4.162;2023-04-01T04:54:18;12.47;;;11.87;;
8568;SDS011;4322;51.104;-4.162;2023-04-01T04:56:46;11.97;;;11.37;;
8568;SDS011;4322;51.104;-4.162;2023-04-01T04:59:14;11.93;;;11.33;;
8568;SDS011;4322;51.104;-4.162;2023-04-01T05:01:41;11.77;;;11.17;;
8568;SDS011;4322;51.104;-4.162;2023-04-01T05:04:11;11.23;;;10.73;;
8568;SDS011;4322;51.104;-4.162;2023-04-01T05:06:38;11.43;;;10.90;;
8568;SDS011;4322;51.104;-4.162;2023-04-01T05:09:06;11.10;;;10.60;;
8568;SDS011;4322;51.104;-4.162;2023-04-01T05:11:34;12.10;;;11.50;;
8568;SDS011;4322;51.104;-4.162;2023-04-01T05:14:02;12.50;;;11.90;;
8568;SDS011;4322;51.104;-4.162;2023-04-01T05:16:29;12.67;;;12.07;;
8568;SDS011;4322;51.104;-4.162;2023-04-01T05:18:57;12.43;;;11.83;;
8568;SDS011;4322;51.104;-4.162;2023-04-01T05:21:27;11.80;;;11.20;;
8568;SDS011;4322;51.104;-4.162;2023-04-01T05:23:54;12.13;;;11.53;;
8568;SDS011;4322;51.104;-4.162;2023-04-01T05:26:22;10.43;;;9.93;;
8568;SDS011;4322;51.104;-4.162;2023-04-01T05:28:50;12.13;;;11.53;;
8568;SDS011;4322;51.104;-4.162;2023-04-01T05:31:17;11.63;;;11.03;;
8568;SDS011;4322;51.104;-4.162;2023-04-01T05:33:45;11.67;;;11.07;;
8568;SDS011;4322;51.104;-4.162;2023-04-01T05:36:13;12.20;;;11.60;;
8568;SDS011;4322;51.104;-4.162;2023-04-01T05:38:44;11.20;;;10.70;;
8568;SDS011;4322;51.104;-4.162;2023-04-01T05:41:13;11.83;;;11.23;;
8568;SDS011;4322;51.104;-4.162;2023-04-01T05:43:41;12.37;;;11.77;;
8568;SDS011;4322;51.104;-4.162;2023-04-01T05:46:09;12.50;;;11.90;;
8568;SDS011;4322;51.104;-4.162;2023-04-01T05:48:37;13.47;;;12.77;;
8568;SDS011;4322;51.104;-4.162;2023-04-01T05:51:05;12.27;;;11.67;;
8568;SDS011;4322;51.104;-4.162;2023-04-01T05:53:32;11.60;;;11.00;;
8568;SDS011;4322;51.104;-4.162;2023-04-01T05:56:05;11.77;;;11.17;;
8568;SDS011;4322;51.104;-4.162;2023-04-01T05:58:34;11.50;;;10.93;;
8568;SDS011;4322;51.104;-4.162;2023-04-01T06:01:03;10.57;;;10.07;;
8568;SDS011;4322;51.104;-4.162;2023-04-01T06:03:37;8.80;;;8.40;;
8568;SDS011;4322;51.104;-4.162;2023-04-01T06:06:08;8.73;;;8.33;;
8568;SDS011;4322;51.104;-4.162;2023-04-01T06:08:39;7.57;;;7.27;;
8568;SDS011;4322;51.104;-4.162;2023-04-01T06:11:12;7.63;;;7.33;;
8568;SDS011;4322;51.104;-4.162;2023-04-01T06:13:51;7.50;;;7.20;;
8568;SDS011;4322;51.104;-4.162;2023-04-01T06:16:27;7.60;;;7.30;;
8568;SDS011;4322;51.104;-4.162;2023-04-01T06:19:03;8.50;;;8.10;;
8568;SDS011;4322;51.104;-4.162;2023-04-01T06:21:37;7.97;;;7.57;;
8568;SDS011;4322;51.104;-4.162;2023-04-01T06:24:20;7.77;;;7.37;;
8568;SDS011;4322;51.104;-4.162;2023-04-01T06:26:53;7.97;;;7.57;;
8568;SDS011;4322;51.104;-4.162;2023-04-01T06:32:25;7.17;;;6.87;;
8568;SDS011;4322;51.104;-4.162;2023-04-01T06:35:00;7.13;;;6.83;;
8568;SDS011;4322;51.104;-4.162;2023-04-01T06:37:38;7.37;;;7.07;;
8568;SDS011;4322;51.104;-4.162;2023-04-01T06:40:15;8.33;;;7.93;;
8568;SDS011;4322;51.104;-4.162;2023-04-01T06:42:55;7.33;;;7.03;;
8568;SDS011;4322;51.104;-4.162;2023-04-01T06:45:29;7.90;;;7.50;;
8568;SDS011;4322;51.104;-4.162;2023-04-01T06:48:06;6.07;;;5.77;;
8568;SDS011;4322;51.104;-4.162;2023-04-01T06:50:39;5.27;;;5.07;;
8568;SDS011;4322;51.104;-4.162;2023-04-01T06:53:10;5.53;;;5.33;;
8568;SDS011;4322;51.104;-4.162;2023-04-01T06:55:41;5.10;;;4.90;;
8568;SDS011;4322;51.104;-4.162;2023-04-01T06:58:13;4.83;;;4.63;;
8568;SDS011;4322;51.104;-4.162;2023-04-01T07:00:46;5.10;;;4.90;;
8568;SDS011;4322;51.104;-4.162;2023-04-01T07:03:17;4.93;;;4.73;;
8568;SDS011;4322;51.104;-4.162;2023-04-01T07:05:46;5.07;;;4.87;;
8568;SDS011;4322;51.104;-4.162;2023-04-01T07:08:15;4.83;;;4.63;;
8568;SDS011;4322;51.104;-4.162;2023-04-01T07:10:45;4.40;;;4.20;;
8568;SDS011;4322;51.104;-4.162;2023-04-01T07:13:20;4.90;;;4.70;;
8568;SDS011;4322;51.104;-4.162;2023-04-01T07:15:54;6.20;;;5.90;;
8568;SDS011;4322;51.104;-4.162;2023-04-01T07:18:24;5.57;;;5.37;;
8568;SDS011;4322;51.104;-4.162;2023-04-01T07:20:55;5.70;;;5.50;;
8568;SDS011;4322;51.104;-4.162;2023-04-01T07:23:24;6.67;;;6.37;;
8568;SDS011;4322;51.104;-4.162;2023-04-01T07:25:53;6.57;;;6.27;;
8568;SDS011;4322;51.104;-4.162;2023-04-01T07:28:26;6.20;;;5.90;;
8568;SDS011;4322;51.104;-4.162;2023-04-01T07:31:00;6.40;;;6.10;;
8568;SDS011;4322;51.104;-4.162;2023-04-01T07:33:32;6.67;;;6.37;;
8568;SDS011;4322;51.104;-4.162;2023-04-01T07:36:02;5.90;;;5.60;;
8568;SDS011;4322;51.104;-4.162;2023-04-01T07:38:32;6.07;;;5.77;;
8568;SDS011;4322;51.104;-4.162;2023-04-01T07:41:05;6.07;;;5.77;;
8568;SDS011;4322;51.104;-4.162;2023-04-01T07:43:44;5.60;;;5.40;;
8568;SDS011;4322;51.104;-4.162;2023-04-01T07:46:19;5.67;;;5.47;;
8568;SDS011;4322;51.104;-4.162;2023-04-01T07:48:49;6.30;;;6.00;;
8568;SDS011;4322;51.104;-4.162;2023-04-01T07:51:20;6.33;;;6.03;;
8568;SDS011;4322;51.104;-4.162;2023-04-01T07:53:50;6.53;;;6.23;;
8568;SDS011;4322;51.104;-4.162;2023-04-01T07:56:22;6.60;;;6.30;;
8568;SDS011;4322;51.104;-4.162;2023-04-01T07:58:56;6.20;;;5.90;;
8568;SDS011;4322;51.104;-4.162;2023-04-01T08:01:28;5.27;;;5.07;;
8568;SDS011;4322;51.104;-4.162;2023-04-01T08:04:03;5.87;;;5.60;;
8568;SDS011;4322;51.104;-4.162;2023-04-01T08:06:36;4.43;;;4.23;;
8568;SDS011;4322;51.104;-4.162;2023-04-01T08:09:05;4.60;;;4.40;;
8568;SDS011;4322;51.104;-4.162;2023-04-01T08:11:38;5.03;;;4.83;;
8568;SDS011;4322;51.104;-4.162;2023-04-01T08:14:12;4.53;;;4.33;;
8568;SDS011;4322;51.104;-4.162;2023-04-01T08:16:42;4.53;;;4.33;;
8568;SDS011;4322;51.104;-4.162;2023-04-01T08:19:16;4.43;;;4.23;;
8568;SDS011;4322;51.104;-4.162;2023-04-01T08:21:48;4.60;;;4.40;;
8568;SDS011;4322;51.104;-4.162;2023-04-01T08:24:18;4.53;;;4.33;;
8568;SDS011;4322;51.104;-4.162;2023-04-01T08:26:49;5.60;;;5.40;;
8568;SDS011;4322;51.104;-4.162;2023-04-01T08:29:21;4.87;;;4.67;;
8568;SDS011;4322;51.104;-4.162;2023-04-01T08:31:50;5.30;;;5.10;;
8568;SDS011;4322;51.104;-4.162;2023-04-01T08:34:20;4.83;;;4.63;;
8568;SDS011;4322;51.104;-4.162;2023-04-01T08:36:50;5.70;;;5.50;;
8568;SDS011;4322;51.104;-4.162;2023-04-01T08:39:21;6.00;;;5.70;;
8568;SDS011;4322;51.104;-4.162;2023-04-01T08:44:52;5.30;;;5.10;;
8568;SDS011;4322;51.104;-4.162;2023-04-01T08:47:34;4.70;;;4.50;;
8568;SDS011;4322;51.104;-4.162;2023-04-01T08:50:12;4.47;;;4.27;;
8568;SDS011;4322;51.104;-4.162;2023-04-01T08:52:46;4.57;;;4.37;;
8568;SDS011;4322;51.104;-4.162;2023-04-01T08:55:20;4.40;;;4.20;;
8568;SDS011;4322;51.104;-4.162;2023-04-01T08:57:53;4.47;;;4.27;;
8568;SDS011;4322;51.104;-4.162;2023-04-01T09:00:27;4.67;;;4.47;;
8568;SDS011;4322;51.104;-4.162;2023-04-01T09:03:09;5.13;;;4.93;;
8568;SDS011;4322;51.104;-4.162;2023-04-01T09:08:31;4.60;;;4.40;;
8568;SDS011;4322;51.104;-4.162;2023-04-01T09:11:12;4.30;;;4.10;;
8568;SDS011;4322;51.104;-4.162;2023-04-01T09:13:54;4.53;;;4.33;;
8568;SDS011;4322;51.104;-4.162;2023-04-01T09:16:35;4.60;;;4.40;;
8568;SDS011;4322;51.104;-4.162;2023-04-01T09:22:03;23.53;;;22.33;;
8568;SDS011;4322;51.104;-4.162;2023-04-01T09:24:35;32.60;;;30.90;;
8568;SDS011;4322;51.104;-4.162;2023-04-01T09:27:10;34.87;;;33.07;;
8568;SDS011;4322;51.104;-4.162;2023-04-01T09:32:29;37.90;;;35.90;;
8568;SDS011;4322;51.104;-4.162;2023-04-01T09:35:02;40.47;;;38.37;;
8568;SDS011;4322;51.104;-4.162;2023-04-01T09:37:35;39.00;;;37.00;;
8568;SDS011;4322;51.104;-4.162;2023-04-01T09:40:13;40.57;;;38.47;;
8568;SDS011;4322;51.104;-4.162;2023-04-01T09:42:44;39.60;;;37.50;;
8568;SDS011;4322;51.104;-4.162;2023-04-01T09:45:34;37.43;;;35.50;;
8568;SDS011;4322;51.104;-4.162;2023-04-01T09:48:08;39.63;;;37.53;;
8568;SDS011;4322;51.104;-4.162;2023-04-01T09:50:39;38.20;;;36.20;;
8568;SDS011;4322;51.104;-4.162;2023-04-01T09:53:14;36.87;;;34.97;;
8568;SDS011;4322;51.104;-4.162;2023-04-01T09:55:52;38.23;;;36.23;;
8568;SDS011;4322;51.104;-4.162;2023-04-01T10:01:19;37.27;;;35.37;;
8568;SDS011;4322;51.104;-4.162;2023-04-01T10:06:47;37.47;;;35.50;;
8568;SDS011;4322;51.104;-4.162;2023-04-01T10:12:11;37.77;;;35.77;;
8568;SDS011;4322;51.104;-4.162;2023-04-01T10:20:40;36.17;;;34.27;;
8568;SDS011;4322;51.104;-4.162;2023-04-01T10:23:29;31.53;;;29.93;;
8568;SDS011;4322;51.104;-4.162;2023-04-01T10:26:04;35.00;;;33.20;;
8568;SDS011;4322;51.104;-4.162;2023-04-01T10:28:49;32.37;;;30.67;;
8568;SDS011;4322;51.104;-4.162;2023-04-01T10:31:33;34.20;;;32.40;;
8568;SDS011;4322;51.104;-4.162;2023-04-01T10:36:52;34.97;;;33.17;;
8568;SDS011;4322;51.104;-4.162;2023-04-01T10:39:35;35.57;;;33.70;;
8568;SDS011;4322;51.104;-4.162;2023-04-01T11:01:45;34.10;;;32.30;;
8568;SDS011;4322;51.104;-4.162;2023-04-01T11:04:44;31.63;;;30.03;;
8568;SDS011;4322;51.104;-4.162;2023-04-01T11:10:16;33.30;;;31.60;;
8568;SDS011;4322;51.104;-4.162;2023-04-01T11:12:58;29.30;;;27.80;;
8568;SDS011;4322;51.104;-4.162;2023-04-01T11:15:48;29.07;;;27.57;;
8568;SDS011;4322;51.104;-4.162;2023-04-01T11:24:07;30.80;;;29.20;;
8568;SDS011;4322;51.104;-4.162;2023-04-01T11:26:39;31.97;;;30.30;;
8568;SDS011;4322;51.104;-4.162;2023-04-01T11:31:58;31.50;;;29.90;;
8568;SDS011;4322;51.104;-4.162;2023-04-01T11:34:38;31.60;;;30.00;;
8568;SDS011;4322;51.104;-4.162;2023-04-01T11:37:10;30.73;;;29.13;;
8568;SDS011;4322;51.104;-4.162;2023-04-01T11:39:45;32.40;;;30.70;;
8568;SDS011;4322;51.104;-4.162;2023-04-01T11:42:17;34.00;;;32.20;;
8568;SDS011;4322;51.104;-4.162;2023-04-01T11:44:51;31.50;;;29.90;;
8568;SDS011;4322;51.104;-4.162;2023-04-01T11:50:18;35.20;;;33.40;;
8568;SDS011;4322;51.104;-4.162;2023-04-01T11:52:55;35.73;;;33.83;;
8568;SDS011;4322;51.104;-4.162;2023-04-01T11:55:37;33.97;;;32.17;;
8568;SDS011;4322;51.104;-4.162;2023-04-01T12:01:08;29.87;;;28.33;;
8568;SDS011;4322;51.104;-4.162;2023-04-01T12:03:47;33.03;;;31.33;;
8568;SDS011;4322;51.104;-4.162;2023-04-01T12:06:23;32.60;;;30.90;;
8568;SDS011;4322;51.104;-4.162;2023-04-01T12:08:59;35.40;;;33.57;;
8568;SDS011;4322;51.104;-4.162;2023-04-01T12:11:32;36.03;;;34.13;;
8568;SDS011;4322;51.104;-4.162;2023-04-01T12:14:04;33.80;;;32.03;;
8568;SDS011;4322;51.104;-4.162;2023-04-01T12:16:37;32.07;;;30.37;;
8568;SDS011;4322;51.104;-4.162;2023-04-01T12:19:10;31.80;;;30.13;;
8568;SDS011;4322;51.104;-4.162;2023-04-01T12:21:42;34.50;;;32.70;;
8568;SDS011;4322;51.104;-4.162;2023-04-01T12:24:18;33.33;;;31.63;;
8568;SDS011;4322;51.104;-4.162;2023-04-01T12:26:55;33.50;;;31.80;;
8568;SDS011;4322;51.104;-4.162;2023-04-01T12:29:36;33.47;;;31.77;;
8568;SDS011;4322;51.104;-4.162;2023-04-01T12:32:09;34.50;;;32.70;;
8568;SDS011;4322;51.104;-4.162;2023-04-01T12:34:42;34.70;;;32.90;;
8568;SDS011;4322;51.104;-4.162;2023-04-01T12:37:12;34.80;;;33.00;;
8568;SDS011;4322;51.104;-4.162;2023-04-01T12:39:50;32.20;;;30.50;;
8568;SDS011;4322;51.104;-4.162;2023-04-01T12:42:24;31.87;;;30.20;;
8568;SDS011;4322;51.104;-4.162;2023-04-01T12:45:03;32.80;;;31.10;;
8568;SDS011;4322;51.104;-4.162;2023-04-01T12:47:51;34.43;;;32.63;;
8568;SDS011;4322;51.104;-4.162;2023-04-01T12:50:26;34.00;;;32.20;;
8568;SDS011;4322;51.104;-4.162;2023-04-01T12:52:59;34.33;;;32.53;;
8568;SDS011;4322;51.104;-4.162;2023-04-01T12:55:38;33.93;;;32.13;;
8568;SDS011;4322;51.104;-4.162;2023-04-01T13:03:47;29.27;;;27.77;;
8568;SDS011;4322;51.104;-4.162;2023-04-01T13:06:23;28.27;;;26.80;;
8568;SDS011;4322;51.104;-4.162;2023-04-01T13:08:55;33.80;;;32.00;;
8568;SDS011;4322;51.104;-4.162;2023-04-01T13:11:28;32.00;;;30.30;;
8568;SDS011;4322;51.104;-4.162;2023-04-01T13:16:58;25.70;;;24.40;;
8568;SDS011;4322;51.104;-4.162;2023-04-01T13:19:30;26.40;;;25.00;;
8568;SDS011;4322;51.104;-4.162;2023-04-01T13:22:04;25.43;;;24.13;;
8568;SDS011;4322;51.104;-4.162;2023-04-01T13:24:40;23.33;;;22.13;;
8568;SDS011;4322;51.104;-4.162;2023-04-01T13:27:10;23.60;;;22.40;;
8568;SDS011;4322;51.104;-4.162;2023-04-01T13:29:40;24.07;;;22.87;;
8568;SDS011;4322;51.104;-4.162;2023-04-01T13:32:17;22.20;;;21.10;;
8568;SDS011;4322;51.104;-4.162;2023-04-01T13:35:02;19.23;;;18.23;;
8568;SDS011;4322;51.104;-4.162;2023-04-01T13:37:41;20.73;;;19.67;;
8568;SDS011;4322;51.104;-4.162;2023-04-01T13:40:21;23.00;;;21.80;;
8568;SDS011;4322;51.104;-4.162;2023-04-01T13:42:53;21.97;;;20.87;;
8568;SDS011;4322;51.104;-4.162;2023-04-01T13:45:22;22.40;;;21.30;;
8568;SDS011;4322;51.104;-4.162;2023-04-01T13:47:55;21.17;;;20.07;;
8568;SDS011;4322;51.104;-4.162;2023-04-01T13:50:32;19.20;;;18.20;;
8568;SDS011;4322;51.104;-4.162;2023-04-01T13:53:13;18.97;;;18.00;;
8568;SDS011;4322;51.104;-4.162;2023-04-01T13:55:53;18.63;;;17.73;;
8568;SDS011;4322;51.104;-4.162;2023-04-01T14:01:09;14.97;;;14.27;;
8568;SDS011;4322;51.104;-4.162;2023-04-01T14:03:42;17.67;;;16.77;;
8568;SDS011;4322;51.104;-4.162;2023-04-01T14:06:14;20.10;;;19.10;;
8568;SDS011;4322;51.104;-4.162;2023-04-01T14:11:31;23.80;;;22.60;;
8568;SDS011;4322;51.104;-4.162;2023-04-01T14:14:04;23.70;;;22.50;;
8568;SDS011;4322;51.104;-4.162;2023-04-01T14:16:47;26.57;;;25.20;;
8568;SDS011;4322;51.104;-4.162;2023-04-01T14:19:24;31.57;;;29.97;;
8568;SDS011;4322;51.104;-4.162;2023-04-01T14:21:59;32.80;;;31.10;;
8568;SDS011;4322;51.104;-4.162;2023-04-01T14:27:36;31.33;;;29.73;;
8568;SDS011;4322;51.104;-4.162;2023-04-01T14:30:15;28.00;;;26.60;;
8568;SDS011;4322;51.104;-4.162;2023-04-01T14:32:48;27.50;;;26.10;;
8568;SDS011;4322;51.104;-4.162;2023-04-01T14:35:23;25.43;;;24.13;;
8568;SDS011;4322;51.104;-4.162;2023-04-01T14:38:00;24.07;;;22.87;;
8568;SDS011;4322;51.104;-4.162;2023-04-01T14:40:33;25.87;;;24.57;;
8568;SDS011;4322;51.104;-4.162;2023-04-01T14:43:10;25.53;;;24.23;;
8568;SDS011;4322;51.104;-4.162;2023-04-01T14:48:31;22.70;;;21.53;;
8568;SDS011;4322;51.104;-4.162;2023-04-01T14:51:03;23.40;;;22.20;;
8568;SDS011;4322;51.104;-4.162;2023-04-01T14:53:33;20.10;;;19.10;;
8568;SDS011;4322;51.104;-4.162;2023-04-01T14:56:05;15.13;;;14.40;;
8568;SDS011;4322;51.104;-4.162;2023-04-01T14:58:40;13.63;;;12.93;;
8568;SDS011;4322;51.104;-4.162;2023-04-01T15:01:12;12.63;;;12.03;;
8568;SDS011;4322;51.104;-4.162;2023-04-01T15:03:46;9.80;;;9.30;;
8568;SDS011;4322;51.104;-4.162;2023-04-01T15:06:25;8.83;;;8.43;;
8568;SDS011;4322;51.104;-4.162;2023-04-01T15:08:56;8.83;;;8.43;;
8568;SDS011;4322;51.104;-4.162;2023-04-01T15:11:33;7.30;;;7.00;;
8568;SDS011;4322;51.104;-4.162;2023-04-01T15:17:00;4.97;;;4.77;;
8568;SDS011;4322;51.104;-4.162;2023-04-01T15:19:31;4.60;;;4.40;;
8568;SDS011;4322;51.104;-4.162;2023-04-01T15:22:05;4.47;;;4.27;;
8568;SDS011;4322;51.104;-4.162;2023-04-01T15:24:40;3.70;;;3.60;;
8568;SDS011;4322;51.104;-4.162;2023-04-01T15:27:27;3.83;;;3.73;;
8568;SDS011;4322;51.104;-4.162;2023-04-01T15:32:43;3.43;;;3.33;;
8568;SDS011;4322;51.104;-4.162;2023-04-01T15:35:15;3.60;;;3.50;;
8568;SDS011;4322;51.104;-4.162;2023-04-01T15:37:48;3.40;;;3.30;;
8568;SDS011;4322;51.104;-4.162;2023-04-01T15:40:24;3.60;;;3.50;;
8568;SDS011;4322;51.104;-4.162;2023-04-01T15:42:56;3.10;;;3.00;;
8568;SDS011;4322;51.104;-4.162;2023-04-01T15:45:35;2.90;;;2.80;;
8568;SDS011;4322;51.104;-4.162;2023-04-01T15:48:06;3.03;;;2.93;;
8568;SDS011;4322;51.104;-4.162;2023-04-01T15:50:50;3.20;;;3.10;;
8568;SDS011;4322;51.104;-4.162;2023-04-01T15:53:40;3.20;;;3.10;;
8568;SDS011;4322;51.104;-4.162;2023-04-01T15:56:16;3.20;;;3.10;;
8568;SDS011;4322;51.104;-4.162;2023-04-01T15:58:48;3.17;;;3.07;;
8568;SDS011;4322;51.104;-4.162;2023-04-01T16:01:24;2.87;;;2.77;;
8568;SDS011;4322;51.104;-4.162;2023-04-01T16:03:54;2.87;;;2.77;;
8568;SDS011;4322;51.104;-4.162;2023-04-01T16:11:57;2.03;;;2.03;;
8568;SDS011;4322;51.104;-4.162;2023-04-01T16:14:33;1.80;;;1.80;;
8568;SDS011;4322;51.104;-4.162;2023-04-01T16:17:12;1.80;;;1.80;;
8568;SDS011;4322;51.104;-4.162;2023-04-01T16:19:49;1.80;;;1.80;;
8568;SDS011;4322;51.104;-4.162;2023-04-01T16:22:19;1.70;;;1.70;;
8568;SDS011;4322;51.104;-4.162;2023-04-01T16:24:48;2.00;;;2.00;;
8568;SDS011;4322;51.104;-4.162;2023-04-01T16:27:23;2.00;;;2.00;;
8568;SDS011;4322;51.104;-4.162;2023-04-01T16:29:53;2.00;;;2.00;;
8568;SDS011;4322;51.104;-4.162;2023-04-01T16:32:28;2.30;;;2.20;;
8568;SDS011;4322;51.104;-4.162;2023-04-01T16:35:03;2.00;;;2.00;;
8568;SDS011;4322;51.104;-4.162;2023-04-01T16:37:33;1.63;;;1.63;;
8568;SDS011;4322;51.104;-4.162;2023-04-01T16:40:09;1.70;;;1.70;;
8568;SDS011;4322;51.104;-4.162;2023-04-01T16:42:43;1.60;;;1.60;;
8568;SDS011;4322;51.104;-4.162;2023-04-01T16:45:20;1.90;;;1.90;;
8568;SDS011;4322;51.104;-4.162;2023-04-01T16:47:50;1.90;;;1.90;;
8568;SDS011;4322;51.104;-4.162;2023-04-01T16:50:20;1.80;;;1.80;;
8568;SDS011;4322;51.104;-4.162;2023-04-01T16:52:58;1.80;;;1.80;;
8568;SDS011;4322;51.104;-4.162;2023-04-01T16:55:34;1.80;;;1.80;;
8568;SDS011;4322;51.104;-4.162;2023-04-01T16:58:05;1.70;;;1.70;;
8568;SDS011;4322;51.104;-4.162;2023-04-01T17:00:36;1.70;;;1.70;;